createdAt,value
2022-09-12T00:00:03.529Z,94.00
2022-09-12T00:02:36.639Z,94.40
2022-09-12T00:05:08.633Z,94.60
2022-09-12T00:07:40.436Z,94.70
2022-09-12T00:10:12.154Z,95.00
2022-09-12T00:12:44.043Z,95.30
2022-09-12T00:15:15.885Z,95.30
2022-09-12T00:17:48.993Z,95.50
2022-09-12T00:20:20.730Z,95.50
2022-09-12T00:22:52.516Z,95.60
2022-09-12T00:25:24.265Z,95.90
2022-09-12T00:27:56.079Z,96.40
2022-09-12T00:30:27.836Z,96.70
2022-09-12T00:33:00.956Z,97.00
2022-09-12T00:35:32.706Z,97.20
2022-09-12T00:38:04.426Z,97.30
2022-09-12T00:40:36.366Z,97.50
2022-09-12T00:43:13.843Z,97.80
2022-09-12T00:45:45.680Z,98.10
2022-09-12T00:48:30.862Z,98.40
2022-09-12T00:51:03.022Z,98.60
2022-09-12T00:53:34.905Z,98.80
2022-09-12T00:56:07.573Z,98.50
2022-09-12T00:58:42.946Z,98.40
2022-09-12T01:01:14.815Z,98.20
2022-09-12T01:03:48.125Z,98.00
2022-09-12T01:06:24.759Z,97.90
2022-09-12T01:08:59.173Z,97.70
2022-09-12T01:11:31.468Z,97.50
2022-09-12T01:14:03.307Z,97.50
2022-09-12T01:16:36.857Z,97.40
2022-09-12T01:19:25.505Z,97.30
2022-09-12T01:22:15.243Z,97.10
2022-09-12T01:25:03.158Z,97.00
2022-09-12T01:27:56.148Z,97.00
2022-09-12T01:30:44.518Z,97.00
2022-09-12T01:33:35.906Z,96.90
2022-09-12T01:36:31.300Z,97.00
2022-09-12T01:39:05.464Z,97.20
2022-09-12T01:41:49.926Z,97.60
2022-09-12T01:44:32.097Z,98.00
2022-09-12T01:47:09.354Z,98.50
2022-09-12T01:49:47.004Z,99.00
2022-09-12T01:52:25.060Z,99.50
2022-09-12T01:55:09.456Z,99.20
2022-09-12T01:57:46.041Z,99.00
2022-09-12T02:00:18.178Z,99.00
2022-09-12T02:02:55.836Z,98.70
2022-09-12T02:05:32.495Z,98.60
2022-09-12T02:08:10.163Z,98.80
2022-09-12T02:10:46.428Z,98.90
2022-09-12T02:13:24.637Z,98.90
2022-09-12T02:16:03.550Z,98.90
2022-09-12T02:18:38.876Z,99.00
2022-09-12T02:21:11.144Z,99.20
2022-09-12T02:23:48.509Z,99.40
2022-09-12T02:26:24.267Z,99.50
2022-09-12T02:29:02.129Z,99.40
2022-09-12T02:31:40.669Z,99.50
2022-09-12T02:34:30.201Z,99.60
2022-09-12T02:37:11.575Z,99.90
2022-09-12T02:39:47.912Z,99.90
2022-09-12T02:42:19.898Z,99.90
2022-09-12T02:44:53.868Z,99.90
2022-09-12T02:47:30.949Z,99.90
2022-09-12T02:50:06.735Z,99.90
2022-09-12T02:52:40.172Z,99.90
2022-09-12T02:55:12.018Z,99.90
2022-09-12T02:57:44.603Z,99.90
2022-09-12T03:00:16.829Z,99.90
2022-09-12T03:03:09.697Z,99.90
2022-09-12T03:05:53.464Z,99.90
2022-09-12T03:08:43.000Z,99.90
2022-09-12T03:11:34.213Z,99.90
2022-09-12T03:14:34.395Z,99.90
2022-09-12T03:17:16.470Z,99.90
2022-09-12T03:19:57.217Z,99.90
2022-09-12T03:22:40.093Z,99.90
2022-09-12T03:25:20.671Z,99.90
2022-09-12T03:27:59.112Z,99.90
2022-09-12T03:30:31.363Z,99.90
2022-09-12T03:33:06.194Z,99.90
2022-09-12T03:35:38.274Z,99.90
2022-09-12T03:38:14.058Z,99.90
2022-09-12T03:40:54.882Z,99.90
2022-09-12T03:43:29.878Z,99.90
2022-09-12T03:46:01.700Z,99.90
2022-09-12T03:48:33.608Z,99.90
2022-09-12T03:51:08.348Z,99.90
2022-09-12T03:53:41.510Z,99.90
2022-09-12T03:56:14.073Z,99.90
2022-09-12T03:58:46.122Z,99.90
2022-09-12T04:01:19.790Z,99.90
2022-09-12T04:03:52.815Z,99.90
2022-09-12T04:06:24.546Z,99.90
2022-09-12T04:08:58.342Z,99.90
2022-09-12T04:11:30.951Z,99.90
2022-09-12T04:14:02.764Z,99.90
2022-09-12T04:16:34.535Z,99.90
2022-09-12T04:19:06.326Z,99.90
2022-09-12T04:21:39.461Z,99.90
2022-09-12T04:24:12.516Z,99.90
2022-09-12T04:26:44.307Z,99.90
2022-09-12T04:29:16.168Z,99.90
2022-09-12T04:31:48.046Z,99.90
2022-09-12T04:34:19.805Z,99.90
2022-09-12T04:36:51.566Z,99.90
2022-09-12T04:39:24.803Z,99.90
2022-09-12T04:41:56.534Z,99.90
2022-09-12T04:44:28.758Z,99.90
2022-09-12T04:47:00.504Z,99.90
2022-09-12T04:49:32.452Z,99.90
2022-09-12T04:52:04.590Z,99.90
2022-09-12T04:54:37.938Z,99.90
2022-09-12T04:57:10.683Z,99.90
2022-09-12T04:59:42.565Z,99.90
2022-09-12T05:02:14.414Z,99.90
2022-09-12T05:04:46.875Z,99.90
2022-09-12T05:07:19.265Z,99.90
2022-09-12T05:09:53.269Z,99.90
2022-09-12T05:14:57.875Z,99.90
2022-09-12T05:17:29.700Z,99.90
2022-09-12T05:20:01.613Z,99.90
2022-09-12T05:22:33.253Z,99.90
2022-09-12T05:25:07.073Z,99.90
2022-09-12T05:27:38.712Z,99.90
2022-09-12T05:30:10.969Z,99.90
2022-09-12T05:32:42.556Z,99.90
2022-09-12T05:35:14.305Z,99.90
2022-09-12T05:37:45.933Z,99.90
2022-09-12T05:40:19.316Z,99.90
2022-09-12T05:42:50.961Z,99.90
2022-09-12T05:45:22.553Z,99.90
2022-09-12T05:47:54.332Z,99.90
2022-09-12T05:50:26.017Z,99.90
2022-09-12T05:52:57.687Z,99.90
2022-09-12T05:55:31.449Z,99.90
2022-09-12T05:58:03.057Z,99.90
2022-09-12T06:00:34.798Z,99.90
2022-09-12T06:03:06.573Z,99.90
2022-09-12T06:05:38.302Z,99.90
2022-09-12T06:08:10.057Z,99.90
2022-09-12T06:10:43.557Z,99.90
2022-09-12T06:13:15.184Z,99.90
2022-09-12T06:15:46.898Z,99.90
2022-09-12T06:18:18.725Z,99.90
2022-09-12T06:20:50.471Z,99.90
2022-09-12T06:23:22.443Z,99.90
2022-09-12T06:25:55.762Z,99.90
2022-09-12T06:28:27.876Z,99.90
2022-09-12T06:31:04.590Z,99.90
2022-09-12T06:33:38.794Z,99.90
2022-09-12T06:36:12.810Z,99.90
2022-09-12T06:38:46.382Z,99.90
2022-09-12T06:41:19.642Z,99.90
2022-09-12T06:43:52.033Z,99.90
2022-09-12T06:46:24.365Z,99.90
2022-09-12T06:48:56.360Z,99.90
2022-09-12T06:51:28.966Z,99.90
2022-09-12T06:54:00.982Z,99.90
2022-09-12T06:56:34.187Z,99.90
2022-09-12T06:59:06.669Z,99.90
2022-09-12T07:01:40.165Z,99.90
2022-09-12T07:04:12.097Z,99.90
2022-09-12T07:06:44.930Z,99.90
2022-09-12T07:09:17.007Z,99.90
2022-09-12T07:11:50.056Z,99.90
2022-09-12T07:14:21.933Z,99.90
2022-09-12T07:16:53.751Z,99.90
2022-09-12T07:19:25.585Z,99.90
2022-09-12T07:21:58.758Z,99.90
2022-09-12T07:24:30.691Z,99.90
2022-09-12T07:27:04.059Z,99.90
2022-09-12T07:29:37.418Z,99.90
2022-09-12T07:32:09.810Z,99.90
2022-09-12T07:34:41.631Z,99.90
2022-09-12T07:37:13.623Z,99.90
2022-09-12T07:59:09.212Z,99.90
2022-09-12T08:01:41.599Z,99.90
2022-09-12T08:04:13.469Z,99.90
2022-09-12T08:06:45.219Z,99.90
2022-09-12T08:09:17.503Z,99.90
2022-09-12T08:11:49.218Z,99.90
2022-09-12T08:14:22.566Z,99.90
2022-09-12T08:16:54.301Z,99.90
2022-09-12T08:19:26.215Z,99.90
2022-09-12T08:21:58.115Z,99.90
2022-09-12T08:24:29.893Z,99.90
2022-09-12T08:27:01.671Z,99.90
2022-09-12T08:29:34.812Z,99.90
2022-09-12T08:32:06.730Z,99.90
2022-09-12T08:34:38.499Z,99.90
2022-09-12T08:37:10.261Z,99.90
2022-09-12T08:39:42.109Z,99.90
2022-09-12T08:42:24.728Z,99.90
2022-09-12T08:45:09.303Z,99.90
2022-09-12T08:47:44.522Z,99.90
2022-09-12T08:50:18.988Z,99.90
2022-09-12T08:52:58.430Z,99.90
2022-09-12T08:55:33.343Z,99.90
2022-09-12T08:58:12.985Z,99.90
2022-09-12T09:00:55.789Z,99.90
2022-09-12T09:03:47.891Z,99.90
2022-09-12T09:06:39.897Z,99.90
2022-09-12T09:09:20.031Z,99.90
2022-09-12T09:12:04.355Z,99.90
2022-09-12T09:15:09.946Z,99.90
2022-09-12T09:17:45.283Z,99.90
2022-09-12T09:20:28.495Z,99.90
2022-09-12T09:23:06.177Z,99.90
2022-09-12T09:25:44.102Z,99.90
2022-09-12T09:28:20.156Z,99.90
2022-09-12T09:30:52.780Z,99.90
2022-09-12T09:33:30.914Z,99.90
2022-09-12T09:36:14.761Z,99.90
2022-09-12T09:38:49.922Z,99.90
2022-09-12T09:41:42.177Z,99.90
2022-09-12T09:44:14.110Z,99.90
2022-09-12T09:46:54.350Z,99.90
2022-09-12T09:49:30.259Z,99.90
2022-09-12T09:52:04.768Z,99.90
2022-09-12T09:54:40.136Z,99.90
2022-09-12T09:57:44.568Z,99.90
2022-09-12T10:00:30.428Z,99.90
2022-09-12T10:03:24.229Z,99.90
2022-09-12T10:06:00.245Z,99.90
2022-09-12T10:08:35.244Z,99.90
2022-09-12T10:11:17.584Z,99.90
2022-09-12T10:13:56.783Z,99.90
2022-09-12T10:16:30.564Z,99.90
2022-09-12T10:19:04.145Z,99.50
2022-09-12T10:21:45.804Z,98.90
2022-09-12T10:24:24.290Z,98.30
2022-09-12T10:26:58.090Z,97.70
2022-09-12T10:29:33.447Z,97.20
2022-09-12T10:32:08.771Z,96.70
2022-09-12T10:34:44.575Z,96.20
2022-09-12T10:37:25.298Z,95.60
2022-09-12T10:39:59.244Z,95.00
2022-09-12T10:42:47.546Z,94.50
2022-09-12T10:45:22.731Z,94.00
2022-09-12T10:47:55.645Z,93.50
2022-09-12T10:50:31.000Z,92.90
2022-09-12T10:53:19.409Z,92.40
2022-09-12T10:56:02.893Z,91.70
2022-09-12T10:58:39.733Z,91.00
2022-09-12T11:01:21.401Z,91.40
2022-09-12T11:04:09.915Z,91.10
2022-09-12T11:07:02.239Z,90.50
2022-09-12T11:09:46.110Z,90.00
2022-09-12T11:12:25.169Z,89.20
2022-09-12T11:15:12.121Z,88.00
2022-09-12T11:17:51.996Z,86.80
2022-09-12T11:20:38.816Z,85.30
2022-09-12T11:23:55.963Z,84.40
2022-09-12T11:26:42.193Z,83.50
2022-09-12T11:29:20.953Z,83.30
2022-09-12T11:32:25.963Z,82.50
2022-09-12T11:35:04.907Z,81.20
2022-09-12T11:38:11.350Z,81.20
2022-09-12T11:40:46.431Z,80.70
2022-09-12T11:43:29.705Z,80.90
2022-09-12T11:46:09.549Z,80.50
2022-09-12T11:48:47.952Z,80.00
2022-09-12T11:51:25.802Z,78.70
2022-09-12T11:54:09.518Z,77.50
2022-09-12T11:56:45.493Z,75.60
2022-09-12T11:59:29.866Z,74.10
2022-09-12T12:02:03.583Z,71.40
2022-09-12T12:04:41.381Z,69.40
2022-09-12T12:07:13.138Z,67.20
2022-09-12T12:09:49.199Z,65.40
2022-09-12T12:12:25.203Z,62.60
2022-09-12T12:14:59.558Z,61.00
2022-09-12T12:17:32.955Z,59.50
2022-09-12T12:20:08.677Z,58.30
2022-09-12T12:22:52.076Z,56.50
2022-09-12T12:25:29.698Z,55.20
2022-09-12T12:28:02.398Z,57.00
2022-09-12T12:31:02.848Z,54.60
2022-09-12T12:34:00.341Z,53.30
2022-09-12T12:36:36.868Z,52.00
2022-09-12T12:39:51.823Z,50.50
2022-09-12T12:42:59.963Z,49.30
2022-09-12T12:46:11.100Z,48.50
2022-09-12T12:48:55.933Z,47.80
2022-09-12T12:51:48.703Z,46.90
2022-09-12T12:54:50.219Z,46.00
2022-09-12T12:57:32.082Z,45.50
2022-09-12T13:00:06.928Z,44.70
2022-09-12T13:02:51.854Z,43.90
2022-09-12T13:05:25.990Z,42.50
2022-09-12T13:08:02.831Z,42.10
2022-09-12T13:10:35.029Z,41.80
2022-09-12T13:13:08.624Z,41.60
2022-09-12T13:15:51.666Z,41.20
2022-09-12T13:18:30.908Z,40.50
2022-09-12T13:21:09.998Z,40.30
2022-09-12T13:23:42.162Z,40.30
2022-09-12T13:26:27.678Z,40.10
2022-09-12T13:29:15.025Z,39.40
2022-09-12T13:31:50.813Z,39.30
2022-09-12T13:34:27.103Z,39.00
2022-09-12T13:37:21.982Z,38.60
2022-09-12T13:39:59.716Z,38.10
2022-09-12T13:42:40.248Z,37.80
2022-09-12T13:45:15.338Z,37.30
2022-09-12T13:47:50.080Z,36.80
2022-09-12T13:50:24.851Z,36.70
2022-09-12T13:52:59.370Z,36.20
2022-09-12T13:55:33.367Z,36.30
2022-09-12T13:58:06.856Z,36.00
2022-09-12T14:00:38.650Z,36.00
2022-09-12T14:03:45.428Z,35.80
2022-09-12T14:06:19.032Z,35.80
2022-09-12T14:08:51.919Z,34.80
2022-09-12T14:11:27.817Z,34.90
2022-09-12T14:14:04.318Z,34.50
2022-09-12T14:16:40.259Z,34.00
2022-09-12T14:19:12.738Z,33.60
2022-09-12T14:21:45.947Z,33.20
2022-09-12T14:24:17.806Z,33.70
2022-09-12T14:26:50.938Z,33.20
2022-09-12T14:29:25.154Z,33.10
2022-09-12T14:32:05.790Z,33.10
2022-09-12T14:34:37.675Z,33.20
2022-09-12T14:37:12.747Z,33.30
2022-09-12T14:39:45.570Z,33.50
2022-09-12T14:42:22.038Z,33.50
2022-09-12T14:44:58.276Z,33.50
2022-09-12T14:47:38.561Z,33.60
2022-09-12T14:50:17.107Z,33.70
2022-09-12T14:53:03.846Z,33.90
2022-09-12T14:55:43.110Z,34.00
2022-09-12T14:58:22.470Z,33.80
2022-09-12T15:00:56.834Z,33.90
2022-09-12T15:03:31.568Z,33.90
2022-09-12T15:06:05.172Z,34.20
2022-09-12T15:08:38.475Z,34.20
2022-09-12T15:11:10.213Z,34.30
2022-09-12T15:13:42.605Z,34.20
2022-09-12T15:16:14.675Z,34.20
2022-09-12T15:18:46.833Z,34.10
2022-09-12T15:21:20.457Z,34.10
2022-09-12T15:23:53.843Z,34.00
2022-09-12T15:26:30.459Z,34.30
2022-09-12T15:29:03.182Z,34.40
2022-09-12T15:31:35.081Z,34.60
2022-09-12T15:34:06.842Z,34.70
2022-09-12T15:36:38.861Z,34.80
2022-09-12T15:39:12.258Z,35.00
2022-09-12T15:41:44.053Z,35.10
2022-09-12T15:44:15.881Z,35.20
2022-09-12T15:46:47.711Z,35.30
2022-09-12T15:49:19.507Z,35.00
2022-09-12T15:51:51.277Z,35.00
2022-09-12T15:54:24.352Z,34.90
2022-09-12T15:56:56.091Z,35.00
2022-09-12T15:59:27.877Z,35.20
2022-09-12T16:01:59.828Z,35.30
2022-09-12T16:04:31.855Z,35.30
2022-09-12T16:07:04.057Z,35.50
2022-09-12T16:09:37.556Z,35.70
2022-09-12T16:12:09.941Z,35.70
2022-09-12T16:14:41.736Z,35.70
2022-09-12T16:17:13.649Z,35.80
2022-09-12T16:19:45.465Z,35.90
2022-09-12T16:22:17.299Z,36.00
2022-09-12T16:24:50.378Z,36.00
2022-09-12T16:27:22.261Z,36.10
2022-09-12T16:29:54.025Z,36.20
2022-09-12T16:32:25.820Z,36.20
2022-09-12T16:34:57.889Z,36.30
2022-09-12T16:37:30.895Z,36.50
2022-09-12T16:40:04.988Z,36.70
2022-09-12T16:42:39.621Z,36.80
2022-09-12T16:45:13.999Z,37.10
2022-09-12T16:47:45.920Z,37.20
2022-09-12T16:50:17.757Z,37.30
2022-09-12T16:52:49.507Z,37.60
2022-09-12T16:55:22.619Z,37.90
2022-09-12T16:57:54.835Z,38.30
2022-09-12T17:00:26.571Z,38.60
2022-09-12T17:02:59.283Z,39.00
2022-09-12T17:05:31.139Z,39.50
2022-09-12T17:08:03.157Z,40.00
2022-09-12T17:10:40.298Z,40.40
2022-09-12T17:13:12.082Z,40.90
2022-09-12T17:15:43.824Z,41.30
2022-09-12T17:18:15.583Z,41.90
2022-09-12T17:20:47.375Z,42.30
2022-09-12T17:23:19.163Z,42.50
2022-09-12T17:25:52.451Z,43.00
2022-09-12T17:28:24.297Z,43.30
2022-09-12T17:30:57.055Z,43.50
2022-09-12T17:33:29.895Z,43.50
2022-09-12T17:36:02.847Z,43.60
2022-09-12T17:38:36.481Z,43.90
2022-09-12T17:41:17.519Z,44.10
2022-09-12T17:43:52.238Z,44.40
2022-09-12T17:46:25.933Z,44.50
2022-09-12T17:48:58.869Z,44.80
2022-09-12T17:51:31.413Z,45.20
2022-09-12T17:54:05.518Z,45.50
2022-09-12T17:56:39.157Z,45.90
2022-09-12T17:59:14.511Z,46.20
2022-09-12T18:02:05.696Z,46.60
2022-09-12T18:04:37.645Z,46.80
2022-09-12T18:07:09.458Z,47.40
2022-09-12T18:09:44.548Z,48.30
2022-09-12T18:12:19.979Z,48.90
2022-09-12T18:14:51.782Z,49.10
2022-09-12T18:17:23.603Z,49.00
2022-09-12T18:19:55.408Z,49.10
2022-09-12T18:22:27.164Z,49.10
2022-09-12T18:24:59.232Z,49.10
2022-09-12T18:27:32.345Z,48.90
2022-09-12T18:30:20.524Z,48.90
2022-09-12T18:32:53.195Z,48.80
2022-09-12T18:35:25.464Z,48.90
2022-09-12T18:37:57.290Z,49.00
2022-09-12T18:40:29.054Z,49.10
2022-09-12T18:43:02.170Z,49.20
2022-09-12T18:45:34.681Z,49.20
2022-09-12T18:48:06.548Z,49.10
2022-09-12T18:50:38.319Z,49.10
2022-09-12T18:53:10.058Z,49.30
2022-09-12T18:55:42.348Z,49.30
2022-09-12T18:58:15.423Z,49.40
2022-09-12T19:00:49.135Z,49.50
2022-09-12T19:03:20.910Z,49.50
2022-09-12T19:05:53.293Z,49.60
2022-09-12T19:08:25.148Z,49.70
2022-09-12T19:10:57.460Z,49.90
2022-09-12T19:13:31.065Z,50.10
2022-09-12T19:16:04.113Z,50.40
2022-09-12T19:18:37.016Z,50.70
2022-09-12T19:21:13.708Z,50.90
2022-09-12T19:23:45.818Z,51.00
2022-09-12T19:26:19.074Z,51.10
2022-09-12T19:28:53.331Z,51.20
2022-09-12T19:31:26.063Z,50.70
2022-09-12T19:34:00.433Z,51.00
2022-09-12T19:36:48.347Z,51.00
2022-09-12T19:39:20.198Z,50.90
2022-09-12T19:41:52.005Z,51.00
2022-09-12T19:44:27.521Z,51.60
2022-09-12T19:46:59.294Z,51.20
2022-09-12T19:49:31.066Z,51.20
2022-09-12T19:52:03.493Z,51.40
2022-09-12T19:54:35.534Z,51.40
2022-09-12T19:57:07.336Z,51.40
2022-09-12T19:59:40.468Z,51.50
2022-09-12T20:02:12.343Z,51.80
2022-09-12T20:04:44.322Z,51.60
2022-09-12T20:07:16.243Z,51.90
2022-09-12T20:09:48.039Z,52.30
2022-09-12T20:12:19.815Z,52.50
2022-09-12T20:14:53.034Z,52.70
2022-09-12T20:17:24.798Z,52.80
2022-09-12T20:19:57.125Z,53.40
2022-09-12T20:22:29.418Z,53.10
2022-09-12T20:25:01.215Z,53.20
2022-09-12T20:27:32.970Z,53.90
2022-09-12T20:30:07.504Z,53.50
2022-09-12T20:32:39.294Z,53.50
2022-09-12T20:35:11.576Z,53.70
2022-09-12T20:37:43.761Z,53.90
2022-09-12T20:40:15.695Z,54.00
2022-09-12T20:42:47.492Z,54.00
2022-09-12T20:45:20.680Z,54.10
2022-09-12T20:47:52.429Z,54.20
2022-09-12T20:50:24.153Z,54.10
2022-09-12T20:52:55.921Z,54.20
2022-09-12T20:55:27.829Z,54.20
2022-09-12T20:57:59.580Z,54.30
2022-09-12T21:00:33.045Z,54.40
2022-09-12T21:03:05.195Z,54.60
2022-09-12T21:05:37.609Z,54.60
2022-09-12T21:08:09.899Z,54.20
2022-09-12T21:10:42.223Z,54.10
2022-09-12T21:13:14.351Z,54.20
2022-09-12T21:15:47.441Z,54.40
2022-09-12T21:18:19.233Z,54.90
2022-09-12T21:20:51.769Z,55.30
2022-09-12T21:23:24.891Z,56.00
2022-09-12T21:25:58.335Z,56.40
2022-09-12T21:28:30.933Z,56.90
2022-09-12T21:31:04.372Z,56.70
2022-09-12T21:33:36.016Z,57.30
2022-09-12T21:36:09.471Z,57.20
2022-09-12T21:38:41.124Z,57.80
2022-09-12T21:41:15.139Z,57.60
2022-09-12T21:43:46.888Z,58.40
2022-09-12T21:46:20.061Z,59.10
2022-09-12T21:48:51.852Z,59.70
2022-09-12T21:51:23.635Z,60.20
2022-09-12T21:53:55.337Z,60.70
2022-09-12T21:56:27.144Z,61.10
2022-09-12T21:58:58.913Z,61.50
2022-09-12T22:01:32.040Z,61.90
2022-09-12T22:04:03.845Z,62.40
2022-09-12T22:06:35.702Z,62.50
2022-09-12T22:09:07.431Z,63.00
2022-09-12T22:11:39.290Z,63.50
2022-09-12T22:14:11.070Z,64.00
2022-09-12T22:16:44.326Z,64.40
2022-09-12T22:19:16.156Z,64.70
2022-09-12T22:22:06.622Z,64.80
2022-09-12T22:24:38.432Z,65.10
2022-09-12T22:27:10.205Z,65.30
2022-09-12T22:29:42.565Z,65.60
2022-09-12T22:32:15.943Z,65.70
2022-09-12T22:34:47.604Z,66.10
2022-09-12T22:37:19.606Z,65.70
2022-09-12T22:39:51.402Z,65.90
2022-09-12T22:42:23.667Z,66.40
2022-09-12T22:44:55.456Z,66.60
2022-09-12T22:47:28.573Z,66.80
2022-09-12T22:50:00.325Z,67.00
2022-09-12T22:52:32.054Z,67.20
2022-09-12T22:55:04.210Z,67.40
2022-09-12T22:57:36.022Z,67.60
2022-09-12T23:00:12.135Z,67.80
2022-09-12T23:02:45.228Z,68.00
2022-09-12T23:05:17.168Z,68.20
2022-09-12T23:07:50.206Z,68.30
2022-09-12T23:10:22.049Z,68.70
2022-09-12T23:12:55.389Z,69.10
2022-09-12T23:15:28.153Z,69.50
2022-09-12T23:18:01.271Z,69.70
2022-09-12T23:20:33.047Z,69.90
2022-09-12T23:23:04.816Z,70.10
2022-09-12T23:25:36.972Z,70.40
2022-09-12T23:28:08.736Z,70.90
2022-09-12T23:30:40.508Z,71.30
2022-09-12T23:33:13.616Z,71.40
2022-09-12T23:35:45.352Z,71.70
2022-09-12T23:38:17.087Z,71.80
2022-09-12T23:40:48.827Z,72.10
2022-09-12T23:43:20.651Z,72.20
2022-09-12T23:45:52.424Z,72.20
2022-09-12T23:48:26.182Z,72.30
2022-09-12T23:50:57.964Z,72.80
2022-09-12T23:53:29.719Z,73.10
2022-09-12T23:56:02.289Z,73.30
2022-09-12T23:58:34.094Z,73.50
